Time;durP1;ratioP1;P1;durP2;ratioP2;P2;SDS_P1;SDS_P2;PMS_P1;PMS_P2;Temp;Humidity;BMP_temperature;BMP_pressure;BME280_temperature;BME280_humidity;BME280_pressure;Samples;Min_cycle;Max_cycle;Signal;HPM_P1;HPM_P2
2021/03/11 00:02:12;;;;;;;24.05;11.70;;;;;;;3.14;71.65;96524.38;4985822;28;20054;-65
2021/03/11 00:04:37;;;;;;;22.75;11.80;;;;;;;3.13;71.75;96533.59;4970057;28;20105;-65
2021/03/11 00:07:03;;;;;;;23.42;11.65;;;;;;;3.14;71.10;96527.88;4949155;29;20046;-62
2021/03/11 00:09:28;;;;;;;21.38;10.98;;;;;;;3.18;71.41;96498.25;4931566;29;20080;-66
2021/03/11 00:11:54;;;;;;;18.02;10.63;;;;;;;3.40;70.54;96508.03;4930667;29;20122;-65
2021/03/11 00:14:19;;;;;;;24.45;11.63;;;;;;;3.43;70.16;96510.13;4926269;29;20093;-64
2021/03/11 00:16:44;;;;;;;19.73;11.07;;;;;;;3.37;70.61;96497.88;4954086;28;20053;-66
2021/03/11 00:19:10;;;;;;;20.92;10.65;;;;;;;3.36;70.98;96488.94;4966856;28;20050;-65
2021/03/11 00:21:35;;;;;;;20.92;10.98;;;;;;;3.40;70.55;96495.31;4965631;28;20185;-65
2021/03/11 00:24:00;;;;;;;22.15;11.82;;;;;;;3.37;69.95;96492.47;4971126;28;20038;-66
2021/03/11 00:26:26;;;;;;;19.90;10.80;;;;;;;3.34;70.60;96493.13;4960283;28;20113;-63
2021/03/11 00:28:51;;;;;;;23.52;11.70;;;;;;;3.38;71.18;96488.63;4965072;28;20042;-65
2021/03/11 00:31:17;;;;;;;21.13;11.15;;;;;;;3.35;71.33;96481.16;4964190;28;20043;-66
2021/03/11 00:33:42;;;;;;;17.90;9.75;;;;;;;3.34;71.57;96482.28;4975800;28;20110;-64
2021/03/11 00:36:07;;;;;;;20.30;11.05;;;;;;;3.29;71.72;96479.75;4952677;28;20045;-64
2021/03/11 00:38:33;;;;;;;25.05;11.30;;;;;;;3.29;71.47;96480.53;4977702;28;20077;-65
2021/03/11 00:40:58;;;;;;;23.45;11.73;;;;;;;3.32;71.43;96485.31;4978999;28;20605;-65
2021/03/11 00:43:24;;;;;;;19.30;10.27;;;;;;;3.38;71.92;96484.00;4972245;28;20597;-65
2021/03/11 00:45:49;;;;;;;20.83;10.63;;;;;;;3.50;71.98;96485.25;4964460;28;20051;-65
2021/03/11 00:48:16;;;;;;;22.27;10.88;;;;;;;3.55;71.49;96483.16;4956651;28;20125;-65
2021/03/11 00:50:42;;;;;;;22.73;11.10;;;;;;;3.68;71.75;96481.31;4982077;28;20050;-65
2021/03/11 00:53:07;;;;;;;23.23;11.68;;;;;;;3.62;71.76;96478.00;4979915;28;20046;-63
2021/03/11 00:55:32;;;;;;;20.10;10.80;;;;;;;3.62;71.32;96471.81;4972504;28;20043;-64
2021/03/11 00:57:58;;;;;;;18.80;10.55;;;;;;;3.67;72.07;96471.59;4968501;28;20681;-65
2021/03/11 01:00:23;;;;;;;38.85;17.75;;;;;;;3.68;72.13;96472.41;4949077;28;20387;-65
2021/03/11 01:02:49;;;;;;;34.08;16.27;;;;;;;3.60;72.27;96469.44;4951927;28;20047;-64
2021/03/11 01:05:33;;;;;;;22.05;11.88;;;;;;;3.52;72.20;96466.75;4963287;28;20058;-64
2021/03/11 01:07:59;;;;;;;20.00;10.50;;;;;;;3.47;71.98;96472.34;4973844;28;20042;-65
2021/03/11 01:10:25;;;;;;;24.90;12.23;;;;;;;3.54;71.82;96464.50;4963711;28;20049;-65
2021/03/11 01:12:50;;;;;;;20.25;11.30;;;;;;;3.68;72.48;96456.16;4962294;28;20085;-64
2021/03/11 01:15:16;;;;;;;22.45;10.48;;;;;;;3.85;71.26;96453.31;4957834;28;20042;-64
2021/03/11 01:17:42;;;;;;;20.98;10.65;;;;;;;3.92;70.79;96456.31;4961993;28;20039;-65
2021/03/11 01:20:11;;;;;;;20.60;11.45;;;;;;;3.89;71.43;96456.19;4956982;28;20108;-63
2021/03/11 01:22:37;;;;;;;24.08;11.68;;;;;;;3.81;72.18;96458.59;4962201;28;20113;-64
2021/03/11 01:25:03;;;;;;;21.85;12.38;;;;;;;3.81;72.67;96446.97;4943817;28;20460;-63
2021/03/11 01:27:29;;;;;;;21.02;12.05;;;;;;;3.87;71.97;96439.44;4943755;28;20050;-65
2021/03/11 01:29:54;;;;;;;26.95;12.40;;;;;;;4.04;70.75;96439.34;4961875;28;20050;-64
2021/03/11 01:32:19;;;;;;;21.20;11.13;;;;;;;4.08;70.37;96440.25;4957305;28;20046;-64
2021/03/11 01:34:45;;;;;;;24.20;10.85;;;;;;;4.10;70.62;96429.88;4962054;28;20520;-63
2021/03/11 01:37:10;;;;;;;21.92;11.45;;;;;;;4.21;70.22;96420.25;4954278;28;20043;-64
2021/03/11 01:39:36;;;;;;;22.70;11.00;;;;;;;4.13;70.27;96412.19;4962309;28;20047;-65
2021/03/11 01:42:01;;;;;;;19.52;10.95;;;;;;;4.13;70.77;96414.88;4960517;28;20058;-65
2021/03/11 01:44:26;;;;;;;22.55;11.80;;;;;;;3.99;72.46;96412.44;4938462;28;20739;-63
2021/03/11 01:46:52;;;;;;;23.58;11.57;;;;;;;3.73;73.52;96401.81;4954497;28;20104;-64
2021/03/11 01:49:17;;;;;;;21.15;11.05;;;;;;;3.41;73.16;96391.31;4976363;28;20117;-64
2021/03/11 01:51:44;;;;;;;22.35;11.68;;;;;;;3.18;73.50;96377.25;4979742;28;20053;-63
2021/03/11 01:54:10;;;;;;;22.15;12.02;;;;;;;3.03;74.87;96372.41;4977162;28;20078;-64
2021/03/11 01:56:36;;;;;;;23.02;12.02;;;;;;;2.94;73.99;96371.66;4980896;28;20717;-63
2021/03/11 01:59:02;;;;;;;21.83;10.73;;;;;;;2.98;74.16;96361.78;4964793;28;20051;-61
2021/03/11 02:01:27;;;;;;;20.63;11.07;;;;;;;3.10;74.41;96361.06;4959137;28;20070;-63
2021/03/11 02:03:53;;;;;;;19.05;10.23;;;;;;;3.28;74.19;96378.81;4961586;28;20455;-62
2021/03/11 02:06:18;;;;;;;22.15;10.90;;;;;;;3.38;74.02;96366.81;4958321;28;20043;-62
2021/03/11 02:08:43;;;;;;;21.92;11.23;;;;;;;3.43;74.11;96364.69;4961783;28;20047;-64
2021/03/11 02:11:18;;;;;;;21.33;11.63;;;;;;;3.50;72.81;96355.28;4939011;28;20070;-64
2021/03/11 02:13:50;;;;;;;22.58;11.25;;;;;;;3.54;73.14;96353.50;4961043;28;20061;-63
2021/03/11 02:16:38;;;;;;;19.58;10.32;;;;;;;3.58;73.10;96349.00;4956715;28;20039;-65
2021/03/11 02:19:40;;;;;;;20.58;11.13;;;;;;;3.66;73.26;96345.44;4959088;28;20043;-65
2021/03/11 02:22:13;;;;;;;22.60;11.18;;;;;;;3.86;73.55;96340.34;4938498;28;20085;-63
2021/03/11 02:24:58;;;;;;;17.50;9.73;;;;;;;3.95;72.80;96327.53;4941876;28;20047;-63
2021/03/11 02:27:54;;;;;;;22.50;10.15;;;;;;;3.92;72.36;96325.47;4938238;28;20062;-64
2021/03/11 02:30:20;;;;;;;20.73;11.40;;;;;;;3.97;71.65;96311.72;4958295;28;20046;-64
2021/03/11 02:32:46;;;;;;;18.75;10.27;;;;;;;3.94;71.68;96299.63;4961637;28;20405;-64
2021/03/11 02:35:13;;;;;;;19.60;10.82;;;;;;;4.00;72.02;96297.50;4939317;28;20038;-63
2021/03/11 02:37:46;;;;;;;20.88;10.52;;;;;;;3.96;70.36;96296.56;4986284;23;20160;-66
2021/03/11 02:40:21;;;;;;;17.60;9.25;;;;;;;4.02;71.23;96297.97;4998519;28;20037;-63
2021/03/11 02:42:48;;;;;;;22.60;10.77;;;;;;;4.08;71.35;96296.63;5010151;28;20412;-66
2021/03/11 02:45:23;;;;;;;21.15;10.43;;;;;;;4.16;71.52;96297.66;4984305;28;20039;-64
2021/03/11 02:47:50;;;;;;;30.27;11.75;;;;;;;4.30;70.56;96297.34;5001198;28;20034;-64
2021/03/11 02:50:16;;;;;;;25.30;11.40;;;;;;;4.44;69.59;96284.28;4995332;28;20653;-64
2021/03/11 02:52:42;;;;;;;22.27;10.40;;;;;;;4.91;66.29;96269.50;4995261;28;20057;-65
2021/03/11 02:55:08;;;;;;;22.67;9.85;;;;;;;4.99;66.53;96265.88;5006810;28;20030;-61
2021/03/11 02:57:37;;;;;;;20.23;10.15;;;;;;;4.99;66.72;96271.31;4991070;28;20058;-64
2021/03/11 03:00:07;;;;;;;17.42;9.75;;;;;;;5.07;65.86;96272.31;4966675;28;20033;-60
2021/03/11 03:02:34;;;;;;;18.20;9.15;;;;;;;5.08;65.68;96273.91;4997204;28;20132;-64
2021/03/11 03:05:01;;;;;;;18.45;10.02;;;;;;;5.00;67.49;96266.66;5000953;28;20034;-66
2021/03/11 03:07:28;;;;;;;17.70;9.35;;;;;;;4.94;67.92;96261.47;4993166;28;20050;-64
2021/03/11 03:09:55;;;;;;;25.20;9.75;;;;;;;4.92;68.51;96269.16;4998667;28;20041;-64
2021/03/11 03:12:22;;;;;;;21.45;10.00;;;;;;;4.95;69.47;96263.06;4988173;28;20055;-64
2021/03/11 03:14:49;;;;;;;17.73;9.57;;;;;;;4.84;70.40;96256.47;4993290;28;20049;-66
2021/03/11 03:17:18;;;;;;;18.20;9.95;;;;;;;4.76;70.32;96249.28;4990104;28;20034;-65
2021/03/11 03:19:45;;;;;;;15.80;9.48;;;;;;;4.75;70.58;96256.63;4998723;28;20488;-65
2021/03/11 03:22:11;;;;;;;16.15;9.07;;;;;;;4.74;70.51;96254.25;4987313;28;20049;-64
2021/03/11 03:24:38;;;;;;;16.20;9.30;;;;;;;4.77;67.09;96250.84;4988906;28;20593;-63
2021/03/11 03:27:03;;;;;;;18.17;8.77;;;;;;;4.88;66.68;96251.97;4977870;28;20041;-61
2021/03/11 03:29:29;;;;;;;16.38;8.70;;;;;;;5.04;65.79;96256.69;4972700;28;20045;-64
2021/03/11 03:31:55;;;;;;;18.15;9.25;;;;;;;5.10;66.63;96242.56;4992910;28;20046;-65
2021/03/11 03:34:20;;;;;;;17.15;9.25;;;;;;;5.17;66.25;96247.44;4999251;28;20466;-66
2021/03/11 03:36:46;;;;;;;15.80;7.90;;;;;;;5.54;59.81;96239.94;4994103;28;20499;-65
2021/03/11 03:39:12;;;;;;;17.48;8.77;;;;;;;5.60;62.37;96247.84;4980126;28;20042;-65
2021/03/11 03:41:43;;;;;;;17.85;8.63;;;;;;;5.70;61.06;96245.44;4984733;28;20072;-64
2021/03/11 03:44:11;;;;;;;17.73;8.40;;;;;;;5.90;59.21;96240.94;4978656;28;20133;-64
2021/03/11 03:46:39;;;;;;;18.25;8.38;;;;;;;5.96;57.55;96229.84;4990900;28;20049;-65
2021/03/11 03:49:07;;;;;;;16.77;7.78;;;;;;;5.89;57.88;96230.44;4981431;28;20487;-62
2021/03/11 03:51:35;;;;;;;15.32;7.65;;;;;;;6.00;56.62;96234.25;4999430;28;20140;-67
2021/03/11 03:54:06;;;;;;;19.10;7.72;;;;;;;6.12;55.40;96233.38;4993546;28;20034;-65
2021/03/11 03:56:35;;;;;;;15.00;7.00;;;;;;;6.26;53.96;96232.97;4991160;28;20046;-66
2021/03/11 03:59:08;;;;;;;16.35;7.63;;;;;;;6.44;52.71;96225.25;4995458;28;20044;-65
2021/03/11 04:01:37;;;;;;;15.48;7.20;;;;;;;6.58;50.87;96231.03;4968489;28;20515;-66
2021/03/11 04:04:05;;;;;;;15.52;7.18;;;;;;;6.72;50.32;96232.50;4983863;28;20046;-60
2021/03/11 04:06:32;;;;;;;16.80;7.70;;;;;;;6.78;50.15;96231.91;4994526;28;20053;-67
2021/03/11 04:09:00;;;;;;;15.02;7.15;;;;;;;6.75;50.80;96246.19;5001557;28;20154;-64
2021/03/11 04:11:25;;;;;;;14.80;7.30;;;;;;;6.83;48.73;96249.91;4996479;28;20069;-62
2021/03/11 04:13:52;;;;;;;17.50;7.13;;;;;;;6.96;48.22;96250.59;4988672;28;20039;-65
2021/03/11 04:16:18;;;;;;;14.50;7.20;;;;;;;7.09;48.69;96254.78;4985466;28;20352;-65
2021/03/11 04:18:45;;;;;;;18.30;7.47;;;;;;;7.09;48.13;96257.50;4994940;28;20129;-67
2021/03/11 04:21:11;;;;;;;17.27;7.82;;;;;;;7.33;46.28;96252.94;4986341;28;20039;-61
2021/03/11 04:23:37;;;;;;;13.75;6.85;;;;;;;7.45;46.19;96244.66;4994539;28;20046;-62
2021/03/11 04:26:04;;;;;;;16.88;7.85;;;;;;;7.43;46.76;96238.78;4962680;28;20539;-63
2021/03/11 04:28:32;;;;;;;13.63;6.32;;;;;;;7.63;45.68;96245.84;4983948;28;20116;-66
2021/03/11 04:30:58;;;;;;;19.05;7.88;;;;;;;7.65;45.36;96240.81;4985684;28;20109;-65
2021/03/11 04:33:24;;;;;;;14.90;7.30;;;;;;;7.70;45.59;96247.91;4978067;28;21039;-67
2021/03/11 04:35:51;;;;;;;17.58;7.50;;;;;;;7.69;44.97;96243.59;4971338;28;20042;-66
2021/03/11 04:38:17;;;;;;;17.70;7.03;;;;;;;7.66;45.80;96253.28;4983599;28;20046;-66
2021/03/11 04:40:43;;;;;;;15.27;7.72;;;;;;;7.71;46.00;96251.44;4990809;28;20038;-66
2021/03/11 04:43:08;;;;;;;15.05;7.05;;;;;;;7.66;45.89;96241.59;4983626;28;20040;-67
2021/03/11 04:45:35;;;;;;;15.80;7.43;;;;;;;7.65;46.47;96242.72;4990912;28;20408;-67
2021/03/11 04:48:02;;;;;;;14.25;6.93;;;;;;;7.65;46.95;96243.53;5002564;28;20047;-67
2021/03/11 04:50:30;;;;;;;14.52;7.30;;;;;;;7.65;46.79;96245.44;4996382;28;20042;-66
2021/03/11 04:52:57;;;;;;;17.35;6.78;;;;;;;7.69;47.26;96235.44;4983518;28;20050;-65
2021/03/11 04:55:23;;;;;;;15.02;6.47;;;;;;;7.80;46.51;96241.88;4982132;28;20526;-67
2021/03/11 04:57:49;;;;;;;14.75;7.25;;;;;;;7.84;46.93;96241.94;4985789;28;20404;-67
2021/03/11 05:00:15;;;;;;;14.52;6.38;;;;;;;7.91;45.65;96242.09;4983264;28;20042;-67
2021/03/11 05:02:45;;;;;;;15.52;6.95;;;;;;;7.92;46.20;96242.88;4987424;28;20109;-64
2021/03/11 05:05:11;;;;;;;13.48;6.95;;;;;;;7.92;46.14;96238.19;4990259;28;20038;-63
2021/03/11 05:07:36;;;;;;;14.23;7.22;;;;;;;7.95;46.27;96232.03;4996608;28;20065;-66
2021/03/11 05:10:03;;;;;;;12.95;5.50;;;;;;;8.07;45.76;96233.81;5016074;28;20053;-64
2021/03/11 05:12:28;;;;;;;16.15;6.25;;;;;;;8.01;46.26;96233.31;4996800;28;20062;-63
2021/03/11 05:14:54;;;;;;;12.18;6.00;;;;;;;8.04;46.26;96226.34;4989587;28;20042;-62
2021/03/11 05:17:20;;;;;;;11.73;6.57;;;;;;;7.99;46.82;96232.88;4991479;28;20038;-64
2021/03/11 05:19:45;;;;;;;13.93;6.50;;;;;;;7.97;46.74;96227.00;5003032;28;20044;-66
2021/03/11 05:22:11;;;;;;;12.65;6.22;;;;;;;8.14;45.53;96230.41;4996778;28;20101;-65
2021/03/11 05:24:36;;;;;;;12.98;6.13;;;;;;;8.08;46.73;96243.56;4994085;28;20054;-66
2021/03/11 05:27:02;;;;;;;11.93;6.28;;;;;;;8.04;46.94;96254.41;4988687;28;20038;-62
2021/03/11 05:29:27;;;;;;;12.43;5.70;;;;;;;8.06;46.93;96247.81;4985473;28;20539;-65
2021/03/11 05:31:52;;;;;;;13.20;6.30;;;;;;;8.19;46.44;96258.19;4991957;28;20062;-64
2021/03/11 05:34:18;;;;;;;14.50;6.63;;;;;;;8.18;47.33;96250.38;4994454;28;20056;-65
2021/03/11 05:36:43;;;;;;;19.08;6.28;;;;;;;8.13;48.24;96262.34;4994859;28;20383;-64
2021/03/11 05:39:09;;;;;;;11.43;5.90;;;;;;;8.10;48.21;96262.28;4997396;28;20136;-62
2021/03/11 05:41:38;;;;;;;13.18;6.50;;;;;;;8.04;49.71;96270.75;4974843;28;20522;-66
2021/03/11 05:44:07;;;;;;;;;;;;;;;8.02;50.22;96278.53;4979233;28;20045;-61
2021/03/11 05:46:37;;;;;;;13.13;6.30;;;;;;;7.94;54.00;96271.38;4968384;28;19952;-64
2021/03/11 05:49:02;;;;;;;;;;;;;;;7.75;57.25;96272.16;4991591;28;20046;-62
2021/03/11 05:51:28;;;;;;;11.85;6.00;;;;;;;7.58;58.33;96278.00;4984068;28;19929;-66
2021/03/11 05:53:54;;;;;;;17.38;6.53;;;;;;;7.53;58.84;96281.81;4990417;28;20133;-66
2021/03/11 05:56:20;;;;;;;15.32;6.82;;;;;;;7.43;60.16;96293.28;4987422;28;20271;-64
2021/03/11 05:58:45;;;;;;;13.98;6.68;;;;;;;7.41;59.99;96290.13;4995116;28;20447;-64
2021/03/11 06:01:11;;;;;;;15.50;6.38;;;;;;;7.39;61.64;96306.03;4985620;28;20128;-65
2021/03/11 06:03:37;;;;;;;13.82;6.00;;;;;;;7.31;62.07;96309.72;4993211;28;20046;-66
2021/03/11 06:06:04;;;;;;;18.08;7.03;;;;;;;7.27;63.47;96299.56;4993679;28;20042;-62
2021/03/11 06:08:31;;;;;;;17.40;6.07;;;;;;;7.23;63.25;96297.88;4997328;28;20128;-64
2021/03/11 06:10:58;;;;;;;14.90;6.20;;;;;;;7.16;64.70;96293.06;4991189;28;20104;-66
2021/03/11 06:13:25;;;;;;;12.82;6.55;;;;;;;7.05;65.93;96281.91;4993621;28;20045;-65
2021/03/11 06:16:03;;;;;;;14.85;5.82;;;;;;;7.16;65.56;96274.00;4984126;28;20457;-65
2021/03/11 06:18:32;;;;;;;12.95;6.00;;;;;;;7.15;65.25;96277.06;4989689;28;20081;-64
2021/03/11 06:21:00;;;;;;;12.27;6.03;;;;;;;7.10;66.51;96282.81;4992635;28;20038;-63
2021/03/11 06:23:25;;;;;;;14.85;6.65;;;;;;;7.01;67.55;96277.53;4983840;28;20074;-66
2021/03/11 06:25:53;;;;;;;17.63;6.28;;;;;;;7.04;66.58;96263.22;4980781;28;20093;-64
2021/03/11 06:28:45;;;;;;;13.15;6.00;;;;;;;7.18;67.10;96254.56;4975102;28;20405;-65
2021/03/11 06:31:20;;;;;;;13.93;6.15;;;;;;;7.22;66.67;96263.59;4978479;28;20039;-65
2021/03/11 06:33:50;;;;;;;10.13;5.18;;;;;;;7.18;65.71;96260.81;4990278;28;20043;-66
2021/03/11 06:36:17;;;;;;;14.35;6.10;;;;;;;7.20;66.33;96284.97;4983227;28;20044;-64
2021/03/11 06:38:43;;;;;;;10.68;5.90;;;;;;;7.23;66.28;96276.88;4993150;28;20049;-65
2021/03/11 06:41:09;;;;;;;12.68;5.82;;;;;;;7.18;66.64;96273.63;5001246;28;20045;-63
2021/03/11 06:43:49;;;;;;;11.15;5.38;;;;;;;7.24;66.58;96272.25;4991534;28;20049;-67
2021/03/11 06:46:14;;;;;;;11.82;5.40;;;;;;;7.34;65.46;96271.66;4988408;28;20042;-64
2021/03/11 06:48:40;;;;;;;11.40;5.57;;;;;;;7.35;64.60;96281.44;4988426;28;20486;-64
2021/03/11 06:51:17;;;;;;;11.80;5.53;;;;;;;7.49;63.37;96278.25;4962076;28;20049;-65
2021/03/11 06:54:10;;;;;;;14.38;5.60;;;;;;;7.51;63.98;96288.75;4996669;28;20797;-63
2021/03/11 06:56:41;;;;;;;10.18;5.30;;;;;;;7.60;62.55;96271.06;4991779;28;20450;-64
2021/03/11 06:59:10;;;;;;;12.73;5.72;;;;;;;7.66;62.34;96272.34;4962019;28;20133;-62
2021/03/11 07:01:48;;;;;;;13.35;5.55;;;;;;;7.67;61.05;96264.97;4994291;28;20046;-65
2021/03/11 07:04:32;;;;;;;16.75;6.20;;;;;;;7.97;58.87;96256.22;4949947;28;20039;-67
2021/03/11 07:06:57;;;;;;;13.13;6.07;;;;;;;7.96;59.59;96255.44;4976254;28;20042;-65
2021/03/11 07:09:38;;;;;;;11.75;5.60;;;;;;;8.07;57.21;96252.91;4979881;28;20778;-64
2021/03/11 07:12:04;;;;;;;11.82;5.53;;;;;;;8.10;57.67;96246.72;4969253;28;20046;-60
2021/03/11 07:14:29;;;;;;;13.63;5.90;;;;;;;8.23;56.51;96242.69;4984550;28;20053;-64
2021/03/11 07:17:15;;;;;;;12.27;5.70;;;;;;;8.24;55.82;96259.84;4979353;28;20093;-66
2021/03/11 07:19:40;;;;;;;13.40;6.13;;;;;;;8.09;56.96;96268.91;4994576;28;20045;-66
2021/03/11 07:22:16;;;;;;;11.00;4.85;;;;;;;8.17;56.82;96268.66;4992265;28;20037;-61
2021/03/11 07:24:41;;;;;;;16.08;6.20;;;;;;;8.14;56.81;96263.13;5018546;28;20092;-63
2021/03/11 07:27:08;;;;;;;10.55;5.53;;;;;;;8.26;56.76;96256.75;5011313;28;20479;-66
2021/03/11 07:29:33;;;;;;;11.35;5.53;;;;;;;8.22;57.03;96254.72;5003327;28;20073;-67
2021/03/11 07:32:04;;;;;;;14.80;5.38;;;;;;;8.36;56.92;96246.03;4996876;28;20038;-63
2021/03/11 07:34:33;;;;;;;11.13;5.80;;;;;;;8.35;58.76;96258.06;4996471;28;20505;-63
2021/03/11 07:37:00;;;;;;;12.07;5.90;;;;;;;8.45;56.96;96250.50;5004813;28;20566;-64
2021/03/11 07:39:30;;;;;;;16.67;5.65;;;;;;;8.45;58.06;96259.47;4993740;28;20193;-65
2021/03/11 07:41:58;;;;;;;11.05;5.55;;;;;;;8.39;57.83;96256.22;4997284;28;20146;-65
2021/03/11 07:44:24;;;;;;;15.13;5.78;;;;;;;8.49;56.32;96265.75;4998855;28;20200;-67
2021/03/11 07:46:49;;;;;;;10.55;5.68;;;;;;;8.58;55.12;96255.38;4988021;28;20144;-65
2021/03/11 07:49:15;;;;;;;12.20;4.75;;;;;;;8.57;55.43;96256.56;4977557;28;20501;-67
2021/03/11 07:51:42;;;;;;;10.93;5.25;;;;;;;8.69;54.65;96252.06;4991548;28;20062;-64
2021/03/11 07:54:07;;;;;;;10.57;4.97;;;;;;;8.69;55.10;96258.28;4973103;28;20048;-66
2021/03/11 07:56:33;;;;;;;12.95;5.22;;;;;;;8.75;53.29;96239.66;5003794;28;20038;-66
2021/03/11 07:59:04;;;;;;;11.40;5.07;;;;;;;8.76;53.20;96238.53;5004385;28;20042;-65
2021/03/11 08:01:33;;;;;;;11.43;5.35;;;;;;;8.89;52.63;96237.16;4977184;28;20807;-66
2021/03/11 08:04:00;;;;;;;9.77;5.22;;;;;;;8.74;52.67;96240.84;5003137;28;20042;-64
2021/03/11 08:06:26;;;;;;;10.93;5.00;;;;;;;8.80;53.26;96242.91;4997942;28;20591;-65
2021/03/11 08:08:52;;;;;;;11.15;4.80;;;;;;;8.85;54.20;96241.78;5003996;28;20049;-65
2021/03/11 08:11:31;;;;;;;13.55;5.50;;;;;;;8.64;54.25;96250.41;4997962;28;20038;-65
2021/03/11 08:14:24;;;;;;;15.30;5.55;;;;;;;8.66;53.98;96237.22;4985018;28;20046;-64
2021/03/11 08:16:51;;;;;;;13.80;5.13;;;;;;;8.74;54.33;96243.56;4989297;28;20049;-66
2021/03/11 08:19:35;;;;;;;10.98;4.75;;;;;;;8.66;54.42;96248.13;4988480;28;20082;-63
2021/03/11 08:22:01;;;;;;;9.13;4.50;;;;;;;8.70;53.20;96245.47;4999815;28;20034;-64
2021/03/11 08:24:46;;;;;;;13.10;4.80;;;;;;;8.78;52.76;96233.47;4986265;28;20590;-65
2021/03/11 08:27:30;;;;;;;11.30;4.43;;;;;;;8.96;52.10;96247.41;4981995;28;20049;-64
2021/03/11 08:29:55;;;;;;;11.40;5.80;;;;;;;8.99;51.97;96241.22;4992983;28;20095;-65
2021/03/11 08:32:46;;;;;;;9.23;4.53;;;;;;;9.12;50.59;96239.06;4989287;28;20133;-65
2021/03/11 08:35:27;;;;;;;10.20;4.85;;;;;;;9.47;50.82;96238.78;4978949;28;20045;-65
2021/03/11 08:37:53;;;;;;;12.00;4.60;;;;;;;9.50;50.57;96226.31;4983784;28;20046;-66
2021/03/11 08:40:39;;;;;;;11.80;4.47;;;;;;;9.65;48.68;96219.88;4977585;28;20042;-66
2021/03/11 08:45:36;;;;;;;11.50;5.82;;;;;;;9.86;47.81;96210.34;4995056;28;20527;-65
2021/03/11 08:48:54;;;;;;;17.75;10.57;;;;;;;10.05;47.22;96198.44;5004136;28;20041;-63
2021/03/11 08:51:20;;;;;;;11.50;5.32;;;;;;;10.09;48.23;96213.72;4997357;28;20501;-64
2021/03/11 08:53:49;;;;;;;28.70;13.43;;;;;;;10.32;46.50;96190.91;5021692;28;20140;-61
2021/03/11 08:56:18;;;;;;;16.92;8.75;;;;;;;10.31;47.36;96190.09;5016497;28;20296;-63
2021/03/11 08:58:53;;;;;;;16.80;7.95;;;;;;;10.60;46.53;96189.56;4999089;28;20038;-62
2021/03/11 09:01:28;;;;;;;11.95;4.82;;;;;;;10.57;47.42;96188.38;4991929;28;20418;-63
2021/03/11 09:03:54;;;;;;;18.02;5.70;;;;;;;10.88;46.67;96178.03;5001455;28;20046;-63
2021/03/11 09:06:20;;;;;;;12.93;4.43;;;;;;;10.98;46.41;96169.09;4996205;28;20046;-64
2021/03/11 09:08:48;;;;;;;10.20;3.80;;;;;;;11.00;46.38;96171.44;4988994;28;20042;-64
2021/03/11 09:11:20;;;;;;;13.05;4.57;;;;;;;11.16;45.80;96179.38;4996655;28;20041;-61
2021/03/11 09:13:48;;;;;;;12.85;6.38;;;;;;;11.20;45.57;96180.16;5000701;28;20395;-62
2021/03/11 09:16:14;;;;;;;30.88;11.75;;;;;;;11.40;44.77;96175.22;4995089;28;20046;-61
2021/03/11 09:18:39;;;;;;;18.58;7.40;;;;;;;11.51;44.40;96175.25;4983817;28;20379;-59
2021/03/11 09:21:09;;;;;;;11.60;4.38;;;;;;;11.37;44.01;96167.75;4996009;28;20096;-64
2021/03/11 09:23:41;;;;;;;11.27;5.40;;;;;;;11.46;44.09;96184.63;4983441;28;20092;-61
2021/03/11 09:26:22;;;;;;;12.38;4.38;;;;;;;11.64;44.17;96176.47;4994691;28;20037;-62
2021/03/11 09:28:48;;;;;;;7.25;4.10;;;;;;;11.76;43.02;96165.16;4999261;28;20042;-61
2021/03/11 09:31:26;;;;;;;8.18;4.00;;;;;;;11.73;43.56;96154.94;4995514;28;20137;-59
2021/03/11 09:33:54;;;;;;;10.63;4.30;;;;;;;11.84;43.44;96163.19;5000368;28;20042;-61
2021/03/11 09:36:19;;;;;;;9.38;4.00;;;;;;;11.77;44.36;96150.25;4996145;28;20047;-61
2021/03/11 09:38:46;;;;;;;7.97;3.70;;;;;;;11.85;43.68;96135.38;4998982;28;20390;-62
2021/03/11 09:41:11;;;;;;;10.20;3.22;;;;;;;11.94;44.29;96140.53;4995435;28;20049;-64
2021/03/11 09:43:38;;;;;;;9.23;3.53;;;;;;;12.14;44.03;96138.22;5000823;28;20057;-61
2021/03/11 09:46:17;;;;;;;8.38;3.35;;;;;;;12.22;43.58;96142.50;4996150;28;20038;-68
2021/03/11 09:48:54;;;;;;;6.63;3.40;;;;;;;12.31;44.13;96130.38;4999149;28;20109;-60
2021/03/11 09:51:30;;;;;;;11.20;3.55;;;;;;;12.10;45.13;96134.69;4995342;28;20042;-61
2021/03/11 09:54:00;;;;;;;7.18;3.70;;;;;;;12.12;45.78;96135.06;5000623;28;20568;-62
2021/03/11 09:56:45;;;;;;;7.35;3.53;;;;;;;12.53;44.73;96131.16;4995770;28;20073;-59
2021/03/11 09:59:16;;;;;;;8.60;3.67;;;;;;;12.56;44.78;96133.91;4993069;28;20066;-62
2021/03/11 10:01:41;;;;;;;10.75;4.20;;;;;;;12.24;43.87;96131.16;4983354;28;20041;-64
2021/03/11 10:04:22;;;;;;;11.00;5.05;;;;;;;11.98;43.97;96133.09;4995536;28;20053;-62
2021/03/11 10:06:59;;;;;;;7.45;3.90;;;;;;;11.55;45.49;96126.69;5000860;28;20050;-62
2021/03/11 10:09:34;;;;;;;12.88;4.45;;;;;;;11.66;45.90;96116.53;4980496;28;20041;-64
2021/03/11 10:11:59;;;;;;;11.15;4.18;;;;;;;11.78;45.74;96123.63;5001692;28;20046;-63
2021/03/11 10:14:27;;;;;;;9.02;3.72;;;;;;;11.96;45.65;96113.47;4992498;28;20049;-63
2021/03/11 10:16:54;;;;;;;14.77;4.70;;;;;;;12.21;45.79;96110.75;5000841;28;20041;-65
2021/03/11 10:19:20;;;;;;;11.93;4.15;;;;;;;12.53;45.90;96096.25;4995109;28;20100;-60
2021/03/11 10:22:10;;;;;;;11.02;3.25;;;;;;;13.05;45.43;96090.22;5002230;28;20578;-61
2021/03/11 10:24:40;;;;;;;;;;;;;;;13.70;44.58;96085.28;4992337;28;20038;-60
2021/03/11 10:27:26;;;;;;;11.20;3.78;;;;;;;14.23;43.86;96079.81;4992607;28;20624;-64
2021/03/11 10:30:06;;;;;;;10.80;2.72;;;;;;;15.32;42.03;96075.56;5000115;28;20038;-60
2021/03/11 10:32:33;;;;;;;3.55;1.45;;;;;;;16.17;39.64;96066.53;4999839;28;20046;-62
2021/03/11 10:34:59;;;;;;;7.57;2.42;;;;;;;15.71;40.33;96068.75;5000108;28;20069;-60
2021/03/11 10:37:26;;;;;;;3.78;2.10;;;;;;;15.56;40.84;96070.16;4995065;28;20050;-62
2021/03/11 10:39:54;;;;;;;5.63;1.85;;;;;;;16.41;40.51;96059.81;5001364;28;20041;-62
2021/03/11 10:42:19;;;;;;;4.03;1.75;;;;;;;16.47;40.07;96060.13;4994215;28;20141;-65
2021/03/11 10:45:03;;;;;;;6.32;2.42;;;;;;;16.43;39.79;96051.88;4999765;28;20046;-65
2021/03/11 10:47:29;;;;;;;4.97;2.30;;;;;;;16.08;40.17;96041.41;4997584;28;20050;-63
2021/03/11 10:49:55;;;;;;;7.75;1.85;;;;;;;15.78;41.33;96049.38;5000333;28;20042;-64
2021/03/11 10:52:22;;;;;;;6.32;2.15;;;;;;;15.46;42.02;96045.03;4994190;28;20412;-64
2021/03/11 10:54:47;;;;;;;8.55;1.90;;;;;;;15.05;43.00;96034.13;4998006;28;20034;-62
2021/03/11 10:57:19;;;;;;;4.43;1.83;;;;;;;14.55;44.51;96032.69;5001228;28;20045;-63
2021/03/11 10:59:58;;;;;;;3.58;1.52;;;;;;;14.81;44.56;96028.50;5011820;28;20505;-63
2021/03/11 11:02:28;;;;;;;4.90;1.92;;;;;;;14.77;44.52;96027.75;4997884;28;20261;-63
2021/03/11 11:04:55;;;;;;;4.65;1.80;;;;;;;14.70;45.27;96014.06;4999602;28;20402;-62
2021/03/11 11:07:21;;;;;;;4.45;1.65;;;;;;;14.54;45.89;96014.56;4993810;28;20042;-63
2021/03/11 11:09:48;;;;;;;5.85;1.40;;;;;;;14.38;46.48;96009.63;4999342;28;20053;-61
2021/03/11 11:12:16;;;;;;;3.60;1.58;;;;;;;14.27;47.07;96015.22;4993948;28;20042;-62
2021/03/11 11:14:43;;;;;;;6.68;1.40;;;;;;;14.18;47.42;96001.16;4982366;28;20042;-61
2021/03/11 11:17:10;;;;;;;2.78;1.05;;;;;;;14.00;48.34;95990.28;4994530;28;20034;-61
2021/03/11 11:19:36;;;;;;;3.75;1.40;;;;;;;13.87;48.70;96005.75;4981612;28;20444;-65
2021/03/11 11:22:02;;;;;;;2.53;1.25;;;;;;;13.98;49.12;96000.94;5002621;28;20077;-61
2021/03/11 11:24:28;;;;;;;2.95;1.23;;;;;;;13.91;48.80;95985.25;4999023;28;20046;-63
2021/03/11 11:26:54;;;;;;;4.85;1.75;;;;;;;13.83;49.77;95986.50;5003577;28;20042;-62
2021/03/11 11:29:21;;;;;;;4.78;0.90;;;;;;;13.96;49.62;95984.81;4997419;28;20038;-64
2021/03/11 11:31:47;;;;;;;2.10;0.90;;;;;;;14.13;48.85;95996.06;5003460;28;20410;-65
2021/03/11 11:34:12;;;;;;;6.38;0.80;;;;;;;14.15;48.61;95980.72;4997472;28;20118;-64
2021/03/11 11:36:38;;;;;;;2.33;1.20;;;;;;;14.25;48.81;95992.81;5003030;28;20048;-64
2021/03/11 11:39:03;;;;;;;5.05;0.90;;;;;;;14.34;48.56;95982.09;4982260;28;20046;-68
2021/03/11 11:41:29;;;;;;;2.65;0.88;;;;;;;14.45;48.36;95976.47;5000131;28;20072;-61
2021/03/11 11:43:54;;;;;;;1.45;0.90;;;;;;;14.38;48.29;95962.00;5001744;28;20046;-63